Time;durP1;ratioP1;P1;durP2;ratioP2;P2;SDS_P1;SDS_P2;PMS_P1;PMS_P2;Temp;Humidity;BMP_temperature;BMP_pressure;BME280_temperature;BME280_humidity;BME280_pressure;Samples;Min_cycle;Max_cycle;Signal;HPM_P1;HPM_P2
2023/06/13 00:02:07;;;;;;;5.18;3.22;;;;;;;17.43;73.25;100219.66;5091427;28;20039;-93
2023/06/13 00:04:33;;;;;;;9.70;3.00;;;;;;;17.23;73.76;100188.53;5097111;28;20094;-94
2023/06/13 00:06:59;;;;;;;9.27;3.22;;;;;;;17.54;73.61;100244.78;5097203;28;20035;-93
2023/06/13 00:09:25;;;;;;;9.68;3.00;;;;;;;17.22;73.66;100189.53;5096070;28;20088;-92
2023/06/13 00:11:52;;;;;;;14.93;3.53;;;;;;;17.35;74.02;100227.88;5095700;28;20020;-93
2023/06/13 00:14:19;;;;;;;15.30;4.30;;;;;;;17.19;74.13;100206.22;5097439;28;20028;-91
2023/06/13 00:16:48;;;;;;;19.02;3.63;;;;;;;17.11;74.20;100191.81;5097255;28;20008;-92
2023/06/13 00:19:14;;;;;;;10.55;3.25;;;;;;;17.04;74.34;100183.53;5098881;28;20016;-90
2023/06/13 00:21:41;;;;;;;4.82;3.22;;;;;;;17.09;74.18;100177.56;5098575;28;20035;-93
2023/06/13 00:24:07;;;;;;;11.18;3.55;;;;;;;17.31;73.41;100209.38;5089875;28;20044;-90
2023/06/13 00:26:33;;;;;;;11.13;3.38;;;;;;;17.20;73.30;100202.47;5082016;28;20029;-90
2023/06/13 00:29:19;;;;;;;9.00;3.10;;;;;;;17.19;73.53;100210.78;5073890;28;20057;-92
2023/06/13 00:31:44;;;;;;;14.85;3.00;;;;;;;17.10;73.46;100201.84;5056393;28;20043;-91
2023/06/13 00:34:09;;;;;;;11.70;3.20;;;;;;;17.17;73.95;100212.84;5055755;28;20051;-90
2023/06/13 00:36:37;;;;;;;7.20;3.20;;;;;;;17.20;73.49;100218.78;5055254;28;20024;-91
2023/06/13 00:39:02;;;;;;;10.93;2.85;;;;;;;17.18;73.30;100204.53;5072696;28;20093;-90
2023/06/13 00:41:31;;;;;;;12.75;3.80;;;;;;;17.27;73.21;100227.94;5055512;28;20045;-90
2023/06/13 00:43:56;;;;;;;4.40;3.25;;;;;;;17.30;73.54;100235.72;5072679;28;20040;-90
2023/06/13 00:46:35;;;;;;;11.85;2.67;;;;;;;17.22;73.93;100222.16;5052723;28;20037;-92
2023/06/13 00:49:02;;;;;;;7.75;2.45;;;;;;;17.31;74.09;100229.25;5052885;28;20048;-90
2023/06/13 00:51:29;;;;;;;7.80;3.60;;;;;;;17.47;73.64;100238.34;5036729;28;20566;-90
2023/06/13 00:53:56;;;;;;;9.18;2.85;;;;;;;17.35;73.29;100225.16;5042091;28;20057;-90
2023/06/13 00:56:23;;;;;;;24.58;3.22;;;;;;;17.16;73.16;100194.84;5058380;28;20037;-90
2023/06/13 00:58:49;;;;;;;6.90;2.35;;;;;;;17.46;73.53;100234.78;5050530;28;20041;-93
2023/06/13 01:01:19;;;;;;;6.63;3.30;;;;;;;17.35;73.47;100219.72;5058430;28;20131;-93
2023/06/13 01:03:45;;;;;;;5.15;2.33;;;;;;;17.28;73.31;100213.28;5048732;28;20045;-91
2023/06/13 01:06:13;;;;;;;9.00;2.60;;;;;;;17.35;73.17;100217.00;5041146;28;20123;-92
2023/06/13 01:08:40;;;;;;;5.97;3.17;;;;;;;17.47;72.42;100213.88;5055573;28;20040;-92
2023/06/13 01:11:36;;;;;;;4.75;3.00;;;;;;;17.52;72.45;100228.63;5055326;28;20036;-92
2023/06/13 01:14:30;;;;;;;7.20;4.15;;;;;;;17.45;72.02;100221.38;5055608;28;20464;-92
2023/06/13 01:17:15;;;;;;;8.05;2.75;;;;;;;17.67;71.94;100236.91;5055137;28;20036;-93
2023/06/13 01:19:43;;;;;;;3.88;3.10;;;;;;;17.62;71.46;100239.31;5056010;28;20033;-91
2023/06/13 01:22:15;;;;;;;14.20;2.88;;;;;;;17.75;71.40;100253.16;5073099;28;20571;-90
2023/06/13 01:25:13;;;;;;;5.97;2.80;;;;;;;17.72;71.01;100246.22;5079827;28;20056;-89
2023/06/13 01:27:44;;;;;;;12.73;3.40;;;;;;;17.65;70.80;100231.63;4981566;28;20530;-90
2023/06/13 01:30:11;;;;;;;6.80;3.13;;;;;;;17.72;70.68;100239.94;4997241;28;20059;-90
2023/06/13 01:32:38;;;;;;;7.30;3.17;;;;;;;17.72;70.60;100259.81;4981722;28;20038;-91
2023/06/13 01:35:04;;;;;;;8.90;3.17;;;;;;;17.56;70.18;100240.03;4977690;28;20116;-90
2023/06/13 01:37:30;;;;;;;7.57;3.92;;;;;;;17.63;70.67;100255.47;4976635;28;20026;-90
2023/06/13 01:39:56;;;;;;;9.63;3.40;;;;;;;17.51;70.46;100231.53;4941504;29;20087;-91
2023/06/13 01:42:21;;;;;;;3.90;3.00;;;;;;;17.52;70.87;100246.84;4922968;29;20071;-92
2023/06/13 01:44:47;;;;;;;9.60;4.35;;;;;;;17.37;70.70;100225.81;4934514;29;20044;-91
2023/06/13 01:47:22;;;;;;;6.03;2.70;;;;;;;17.64;70.64;100261.75;4919627;29;20035;-92
2023/06/13 01:49:53;;;;;;;4.32;2.92;;;;;;;17.71;70.96;100270.88;4937379;29;20047;-91
2023/06/13 01:52:39;;;;;;;9.93;3.10;;;;;;;17.57;70.47;100237.13;4939767;29;20059;-91
2023/06/13 01:55:13;;;;;;;7.43;3.13;;;;;;;17.24;70.87;100225.56;4945102;28;20031;-92
2023/06/13 01:57:47;;;;;;;8.40;3.75;;;;;;;17.38;71.26;100249.28;4957508;28;20099;-92
2023/06/13 02:00:15;;;;;;;9.32;3.58;;;;;;;17.32;71.13;100230.09;4950289;28;20055;-92
2023/06/13 02:02:41;;;;;;;9.98;3.25;;;;;;;17.41;71.25;100227.16;4919026;29;20098;-92
2023/06/13 02:05:08;;;;;;;10.93;3.50;;;;;;;17.43;70.94;100229.69;4991798;28;20490;-93
2023/06/13 02:07:36;;;;;;;5.43;3.35;;;;;;;17.78;70.42;100263.69;5015021;28;20381;-90
2023/06/13 02:10:05;;;;;;;5.03;3.20;;;;;;;17.76;70.11;100263.03;5037915;28;20048;-91
2023/06/13 02:12:31;;;;;;;14.05;3.92;;;;;;;17.71;70.22;100243.66;5072395;28;20107;-90
2023/06/13 02:14:56;;;;;;;6.28;3.20;;;;;;;17.90;69.85;100268.53;5072924;28;20028;-89
2023/06/13 02:17:23;;;;;;;4.15;3.55;;;;;;;17.78;69.26;100247.38;5072907;28;20025;-90
2023/06/13 02:19:49;;;;;;;3.42;2.67;;;;;;;17.89;69.41;100279.59;5089984;28;20036;-83
2023/06/13 02:22:14;;;;;;;4.80;3.30;;;;;;;18.06;69.10;100291.22;5074803;28;21077;-85
2023/06/13 02:24:40;;;;;;;10.02;3.17;;;;;;;17.85;69.02;100284.56;5070449;28;20028;-83
2023/06/13 02:27:06;;;;;;;12.65;4.18;;;;;;;17.88;69.40;100294.25;5070848;28;20169;-89
2023/06/13 02:29:33;;;;;;;6.45;3.78;;;;;;;17.98;69.37;100302.19;5070652;28;20665;-93
2023/06/13 02:31:59;;;;;;;9.07;2.88;;;;;;;17.68;69.96;100288.41;5072158;28;20045;-83
2023/06/13 02:34:25;;;;;;;3.20;2.58;;;;;;;17.69;70.06;100287.38;5069752;28;20081;-84
2023/06/13 02:36:50;;;;;;;6.00;3.15;;;;;;;17.82;69.85;100303.13;5071011;28;20028;-84
2023/06/13 02:39:15;;;;;;;7.32;3.75;;;;;;;17.75;69.35;100297.53;5072142;28;20035;-83
2023/06/13 02:41:41;;;;;;;8.00;3.25;;;;;;;17.72;69.77;100299.78;5073298;28;20025;-84
2023/06/13 02:44:06;;;;;;;5.38;3.55;;;;;;;17.69;70.02;100295.53;5086032;28;20033;-83
2023/06/13 02:46:32;;;;;;;7.25;3.55;;;;;;;17.77;69.87;100308.22;5074169;28;20103;-86
2023/06/13 02:48:57;;;;;;;9.32;3.33;;;;;;;17.63;70.49;100311.72;5073271;28;20021;-85
2023/06/13 02:51:23;;;;;;;14.73;3.70;;;;;;;17.63;70.57;100317.16;5075282;28;20039;-86
2023/06/13 02:53:48;;;;;;;6.00;3.05;;;;;;;17.62;70.40;100310.00;5089072;28;20067;-91
2023/06/13 02:56:14;;;;;;;9.45;3.60;;;;;;;17.64;70.09;100321.59;5090710;28;20088;-92
2023/06/13 02:58:39;;;;;;;6.63;3.38;;;;;;;17.48;70.47;100302.59;5072397;28;20044;-94
2023/06/13 03:01:06;;;;;;;3.92;3.20;;;;;;;17.53;70.80;100316.50;5079875;28;20039;-90
2023/06/13 03:03:32;;;;;;;5.05;4.20;;;;;;;17.30;70.65;100281.94;5075435;28;20029;-91
2023/06/13 03:05:59;;;;;;;13.02;3.38;;;;;;;17.43;70.29;100295.78;5074166;28;20025;-86
2023/06/13 03:08:26;;;;;;;8.45;3.55;;;;;;;17.58;70.40;100327.72;5073244;28;20418;-85
2023/06/13 03:10:53;;;;;;;10.10;4.03;;;;;;;17.58;70.46;100317.72;5080003;28;20021;-94
2023/06/13 03:13:18;;;;;;;10.32;3.90;;;;;;;17.66;69.86;100312.22;5075888;28;20031;-91
2023/06/13 03:15:45;;;;;;;11.75;4.03;;;;;;;17.76;69.44;100306.56;5074638;28;20036;-91
2023/06/13 03:18:11;;;;;;;5.13;3.20;;;;;;;17.97;69.19;100319.53;5075816;28;20033;-90
2023/06/13 03:20:37;;;;;;;7.80;4.05;;;;;;;18.07;68.71;100331.03;5076561;28;20044;-90
2023/06/13 03:23:03;;;;;;;10.80;4.07;;;;;;;17.97;68.62;100314.06;5075260;28;20377;-90
2023/06/13 03:25:29;;;;;;;7.78;3.42;;;;;;;18.00;68.46;100325.44;5074696;28;20039;-91
2023/06/13 03:27:55;;;;;;;5.05;3.70;;;;;;;18.11;68.00;100341.34;5075005;28;20553;-90
2023/06/13 03:30:21;;;;;;;9.20;4.10;;;;;;;18.00;68.29;100336.34;5080584;28;20082;-91
2023/06/13 03:32:46;;;;;;;14.70;3.60;;;;;;;18.02;68.13;100328.84;5077648;28;20293;-91
2023/06/13 03:35:12;;;;;;;4.85;3.83;;;;;;;18.16;68.12;100344.41;5075391;28;20085;-89
2023/06/13 03:37:38;;;;;;;7.72;3.67;;;;;;;18.20;68.16;100345.72;5076130;28;20483;-89
2023/06/13 03:40:04;;;;;;;8.13;4.00;;;;;;;18.08;67.35;100305.47;5075676;28;20123;-90
2023/06/13 03:42:30;;;;;;;8.65;4.10;;;;;;;18.28;67.04;100326.63;5078655;28;20031;-90
2023/06/13 03:44:55;;;;;;;4.68;3.80;;;;;;;18.33;66.83;100329.63;5081063;28;20100;-91
2023/06/13 03:47:21;;;;;;;6.47;3.78;;;;;;;18.32;67.24;100352.44;5081252;28;20038;-91
2023/06/13 03:49:46;;;;;;;9.13;3.67;;;;;;;18.31;66.77;100350.75;5095027;28;20028;-91
2023/06/13 03:52:12;;;;;;;8.82;4.10;;;;;;;18.18;67.14;100344.22;5096833;28;20024;-92
2023/06/13 03:54:37;;;;;;;11.13;4.47;;;;;;;18.12;67.76;100340.34;5082191;28;20106;-91
2023/06/13 03:57:03;;;;;;;7.63;3.95;;;;;;;18.18;67.60;100339.63;5076006;28;20031;-90
2023/06/13 03:59:28;;;;;;;8.10;4.05;;;;;;;18.10;67.62;100342.41;5075735;28;20036;-91
2023/06/13 04:01:54;;;;;;;5.97;4.15;;;;;;;18.08;67.93;100341.72;5056676;28;20041;-91
2023/06/13 04:04:19;;;;;;;5.85;3.63;;;;;;;18.17;67.99;100359.69;5035477;28;20052;-92
2023/06/13 04:06:47;;;;;;;5.70;3.88;;;;;;;18.18;67.66;100355.94;5036829;28;20033;-91
2023/06/13 04:09:14;;;;;;;10.55;4.20;;;;;;;18.27;67.52;100343.97;5035869;28;20055;-91
2023/06/13 04:11:39;;;;;;;9.70;3.47;;;;;;;18.27;67.61;100343.13;5036122;28;20033;-90
2023/06/13 04:14:04;;;;;;;12.55;3.65;;;;;;;18.35;67.47;100345.78;5036515;28;20093;-91
2023/06/13 04:16:30;;;;;;;30.13;7.25;;;;;;;18.40;67.06;100329.75;5035778;28;20037;-91
2023/06/13 04:18:55;;;;;;;8.65;3.83;;;;;;;18.48;66.46;100340.56;5035631;28;20029;-92
2023/06/13 04:21:24;;;;;;;10.68;4.68;;;;;;;18.36;66.45;100320.25;5051838;28;20080;-92
2023/06/13 04:23:50;;;;;;;13.18;3.85;;;;;;;18.54;66.31;100334.44;5035605;28;20427;-89
2023/06/13 04:26:18;;;;;;;15.73;4.50;;;;;;;18.66;66.40;100349.31;5036151;28;20035;-89
2023/06/13 04:28:45;;;;;;;6.80;4.45;;;;;;;18.56;66.36;100323.38;5052218;28;20132;-90
2023/06/13 04:31:12;;;;;;;8.93;3.90;;;;;;;18.62;66.35;100336.25;5052564;28;20032;-89
2023/06/13 04:33:41;;;;;;;8.88;3.38;;;;;;;18.62;65.94;100330.81;5070340;28;20115;-91
2023/06/13 04:36:08;;;;;;;7.82;3.70;;;;;;;18.77;65.82;100337.13;5076324;28;20066;-89
2023/06/13 04:38:37;;;;;;;7.85;4.47;;;;;;;18.69;65.79;100332.59;5078005;28;20092;-91
2023/06/13 04:41:03;;;;;;;6.40;2.95;;;;;;;18.90;65.08;100331.88;5081604;28;20021;-90
2023/06/13 04:43:28;;;;;;;10.45;3.63;;;;;;;18.94;64.54;100330.47;5089208;28;20032;-88
2023/06/13 04:46:02;;;;;;;5.45;3.55;;;;;;;18.99;64.66;100339.78;5097032;28;20078;-88
2023/06/13 04:48:28;;;;;;;8.77;3.88;;;;;;;19.07;64.18;100347.03;5096749;28;20084;-88
2023/06/13 04:50:54;;;;;;;9.68;3.53;;;;;;;19.11;64.54;100342.91;5104470;28;20016;-86
2023/06/13 04:53:21;;;;;;;13.63;3.95;;;;;;;19.09;64.00;100323.16;5098383;28;20036;-88
2023/06/13 04:55:48;;;;;;;12.63;3.83;;;;;;;19.13;63.90;100346.31;5108589;28;20043;-90
2023/06/13 04:58:14;;;;;;;6.13;3.70;;;;;;;18.98;64.09;100316.31;5112889;28;20016;-84
2023/06/13 05:00:40;;;;;;;10.23;4.47;;;;;;;19.21;63.75;100338.03;5090080;28;20028;-85
2023/06/13 05:03:06;;;;;;;16.63;4.20;;;;;;;19.33;64.01;100355.63;5091696;28;20020;-83
2023/06/13 05:05:32;;;;;;;7.47;3.58;;;;;;;19.10;63.10;100327.59;5091846;28;20036;-87
2023/06/13 05:07:59;;;;;;;17.95;4.03;;;;;;;19.23;63.64;100329.66;5091344;28;20042;-87
2023/06/13 05:10:27;;;;;;;21.70;3.88;;;;;;;19.40;62.89;100339.38;5095408;28;20038;-81
2023/06/13 05:12:53;;;;;;;21.15;4.95;;;;;;;19.35;62.97;100329.00;5094526;28;20498;-83
2023/06/13 05:15:22;;;;;;;18.05;3.33;;;;;;;19.54;63.04;100354.88;5093130;28;20035;-82
2023/06/13 05:17:48;;;;;;;23.95;5.30;;;;;;;19.52;63.24;100351.50;5090896;28;20103;-85
2023/06/13 05:20:14;;;;;;;13.98;4.13;;;;;;;19.71;62.57;100361.00;5091836;28;20598;-82
2023/06/13 05:22:41;;;;;;;10.45;3.75;;;;;;;19.78;62.08;100362.78;5092359;28;20528;-89
2023/06/13 05:25:11;;;;;;;7.75;4.18;;;;;;;19.84;61.68;100351.09;5092611;28;20095;-86
2023/06/13 05:27:37;;;;;;;16.98;3.53;;;;;;;19.96;61.54;100356.91;5094150;28;20034;-83
2023/06/13 05:30:08;;;;;;;27.10;4.20;;;;;;;19.92;61.58;100352.84;5089437;28;20048;-82
2023/06/13 05:32:34;;;;;;;6.15;3.28;;;;;;;20.06;61.42;100351.97;5092076;28;20024;-84
2023/06/13 05:35:00;;;;;;;12.77;3.90;;;;;;;20.19;61.47;100373.13;5094222;28;20036;-84
2023/06/13 05:37:28;;;;;;;5.68;3.38;;;;;;;20.24;60.81;100363.31;5093203;28;20066;-87
2023/06/13 05:39:54;;;;;;;10.90;3.92;;;;;;;20.15;60.79;100336.34;5090964;28;20113;-80
2023/06/13 05:42:19;;;;;;;16.23;5.18;;;;;;;20.18;60.33;100342.25;5101552;28;20048;-89
2023/06/13 05:44:45;;;;;;;16.48;4.28;;;;;;;20.41;60.53;100375.72;5107102;28;20032;-83
2023/06/13 05:47:10;;;;;;;17.00;3.67;;;;;;;20.47;60.28;100377.66;5099135;28;20028;-86
2023/06/13 05:49:36;;;;;;;11.30;4.05;;;;;;;20.43;60.25;100361.84;5091249;28;20515;-84
2023/06/13 05:52:01;;;;;;;12.38;4.03;;;;;;;20.57;59.99;100364.53;5090177;28;20017;-84
2023/06/13 05:54:27;;;;;;;22.52;5.00;;;;;;;20.49;59.98;100372.84;5091969;28;20027;-86
2023/06/13 05:56:52;;;;;;;14.65;4.63;;;;;;;20.53;59.98;100360.50;5090766;28;20082;-89
2023/06/13 05:59:18;;;;;;;21.25;5.00;;;;;;;20.56;59.56;100381.13;5092069;28;20024;-84
2023/06/13 06:01:45;;;;;;;17.70;5.18;;;;;;;20.62;59.95;100380.34;5089767;28;20027;-84
2023/06/13 06:04:10;;;;;;;7.63;3.30;;;;;;;20.55;59.61;100335.69;5089650;28;20070;-86
2023/06/13 06:06:37;;;;;;;5.95;3.88;;;;;;;20.64;59.39;100359.97;5089785;28;20086;-88
2023/06/13 06:09:04;;;;;;;29.30;5.68;;;;;;;20.74;60.06;100353.31;5089094;28;20036;-84
2023/06/13 06:11:31;;;;;;;8.43;3.80;;;;;;;20.99;59.83;100368.25;5088898;28;20051;-82
2023/06/13 06:13:56;;;;;;;14.27;4.28;;;;;;;21.11;59.02;100353.03;5090837;28;20028;-85
2023/06/13 06:16:22;;;;;;;12.32;4.00;;;;;;;21.14;58.36;100349.88;5092427;28;20028;-87
2023/06/13 06:18:48;;;;;;;11.75;3.50;;;;;;;21.23;57.85;100337.75;5089709;28;20491;-88
2023/06/13 06:21:14;;;;;;;6.35;3.22;;;;;;;21.45;57.56;100372.19;5090279;28;20020;-86
2023/06/13 06:23:42;;;;;;;13.07;3.72;;;;;;;21.36;57.51;100348.78;5090073;28;20050;-80
2023/06/13 06:26:11;;;;;;;26.13;4.85;;;;;;;21.59;57.44;100352.06;5088996;28;20126;-83
2023/06/13 06:28:36;;;;;;;10.70;3.55;;;;;;;21.65;56.57;100348.50;5091161;28;20047;-85
2023/06/13 06:31:05;;;;;;;31.17;5.20;;;;;;;21.68;56.28;100350.84;5092955;28;20130;-81
2023/06/13 06:33:30;;;;;;;4.40;2.55;;;;;;;21.75;56.18;100341.81;5093131;28;20180;-85
2023/06/13 06:35:56;;;;;;;11.40;3.78;;;;;;;21.87;55.66;100356.59;5092637;28;20056;-83
2023/06/13 06:38:21;;;;;;;3.88;2.65;;;;;;;21.98;55.69;100358.81;5092607;28;20122;-84
2023/06/13 06:40:47;;;;;;;8.88;3.78;;;;;;;22.09;55.47;100360.94;5095330;28;20020;-84
2023/06/13 06:43:12;;;;;;;7.63;3.78;;;;;;;22.13;55.26;100348.53;5098320;28;20025;-85
2023/06/13 06:45:38;;;;;;;13.48;4.30;;;;;;;22.24;54.40;100358.88;5086474;28;20024;-78
2023/06/13 06:48:03;;;;;;;3.75;2.97;;;;;;;22.27;54.36;100341.16;5088417;28;20032;-83
2023/06/13 06:50:29;;;;;;;17.05;3.55;;;;;;;22.32;54.78;100339.53;5087945;28;20394;-80
2023/06/13 06:52:55;;;;;;;22.58;4.32;;;;;;;22.40;54.42;100344.78;5091644;28;20491;-80
2023/06/13 06:55:20;;;;;;;15.55;6.03;;;;;;;22.49;54.62;100361.88;5092010;28;20035;-80
2023/06/13 06:57:46;;;;;;;9.35;3.58;;;;;;;22.51;53.70;100344.16;5092453;28;20035;-85
2023/06/13 07:00:14;;;;;;;30.88;4.50;;;;;;;22.63;53.44;100353.44;5092432;28;20084;-81
2023/06/13 07:02:43;;;;;;;9.43;3.35;;;;;;;22.70;53.37;100335.16;5092330;28;20378;-82
2023/06/13 07:05:09;;;;;;;18.00;4.95;;;;;;;22.81;52.58;100346.56;5093108;28;20028;-84
2023/06/13 07:07:35;;;;;;;11.82;3.15;;;;;;;23.12;52.01;100352.22;5092523;28;20038;-77
2023/06/13 07:10:05;;;;;;;12.02;3.28;;;;;;;23.24;52.02;100342.28;5091919;28;20507;-84
2023/06/13 07:12:34;;;;;;;13.65;5.05;;;;;;;23.38;51.17;100329.38;5096994;28;20109;-81
2023/06/13 07:14:59;;;;;;;12.70;2.90;;;;;;;23.51;50.69;100334.88;5092008;28;20016;-82
2023/06/13 07:17:25;;;;;;;13.52;5.55;;;;;;;23.65;50.78;100342.84;5098925;28;20031;-90
2023/06/13 07:19:51;;;;;;;11.35;4.18;;;;;;;23.49;50.48;100326.00;5098722;28;20576;-89
2023/06/13 07:22:16;;;;;;;10.45;2.95;;;;;;;23.48;50.86;100347.13;5097180;28;20511;-90
2023/06/13 07:24:42;;;;;;;28.25;7.47;;;;;;;23.49;51.29;100337.81;5097744;28;20486;-90
2023/06/13 07:27:07;;;;;;;13.57;5.22;;;;;;;23.34;50.23;100312.50;5096440;28;20058;-89
2023/06/13 07:29:33;;;;;;;12.65;3.72;;;;;;;23.27;51.05;100319.91;5097129;28;20051;-89
2023/06/13 07:32:00;;;;;;;10.68;3.50;;;;;;;23.16;51.15;100310.44;5098264;28;20040;-88
2023/06/13 07:34:26;;;;;;;4.63;2.30;;;;;;;23.18;51.34;100310.19;5104539;28;20048;-91
2023/06/13 07:36:53;;;;;;;20.70;3.47;;;;;;;23.16;51.35;100304.94;5118920;28;20070;-91
2023/06/13 07:39:19;;;;;;;34.13;5.88;;;;;;;23.33;51.00;100315.47;5117415;28;20040;-90
2023/06/13 07:41:46;;;;;;;24.63;6.85;;;;;;;23.41;50.76;100318.84;5104136;28;20150;-89
2023/06/13 07:44:12;;;;;;;21.73;6.07;;;;;;;23.50;50.75;100316.72;5097575;28;20145;-88
2023/06/13 07:46:38;;;;;;;14.80;4.47;;;;;;;23.72;50.25;100338.19;5095437;28;20056;-89
2023/06/13 07:49:04;;;;;;;7.68;3.42;;;;;;;23.50;51.81;100339.53;5094934;28;20107;-88
2023/06/13 07:51:29;;;;;;;17.23;4.07;;;;;;;23.51;52.20;100332.97;5076613;28;20093;-89
2023/06/13 07:53:55;;;;;;;10.60;4.57;;;;;;;23.29;52.56;100309.56;5091891;28;20140;-90
2023/06/13 07:56:21;;;;;;;15.88;3.97;;;;;;;23.18;53.08;100319.28;5076502;28;20056;-89
2023/06/13 07:58:46;;;;;;;37.45;3.85;;;;;;;23.21;53.67;100346.28;5093933;28;20040;-89
2023/06/13 08:01:12;;;;;;;20.33;4.78;;;;;;;23.16;53.74;100312.31;5094521;28;20400;-90
2023/06/13 08:03:37;;;;;;;22.67;4.93;;;;;;;22.97;54.06;100310.44;5093108;28;20063;-90
2023/06/13 08:06:03;;;;;;;13.35;3.85;;;;;;;22.98;54.30;100306.66;5094373;28;20633;-89
2023/06/13 08:08:29;;;;;;;44.70;6.30;;;;;;;23.00;54.26;100338.31;5096972;28;20051;-88
2023/06/13 08:10:54;;;;;;;6.60;2.63;;;;;;;22.62;54.70;100313.41;5096550;28;20032;-89
2023/06/13 08:13:19;;;;;;;8.20;2.83;;;;;;;22.74;54.35;100306.25;5096007;28;20028;-90
2023/06/13 08:15:45;;;;;;;9.75;3.20;;;;;;;22.80;54.82;100320.19;5095044;28;20036;-89
2023/06/13 08:18:10;;;;;;;10.98;2.72;;;;;;;22.70;54.47;100326.94;5097125;28;20012;-92
2023/06/13 08:20:37;;;;;;;6.15;2.38;;;;;;;22.61;54.96;100328.16;5095518;28;20035;-89
2023/06/13 08:23:03;;;;;;;17.25;5.13;;;;;;;22.62;55.21;100324.38;5097717;28;20024;-89
2023/06/13 08:25:28;;;;;;;19.27;2.92;;;;;;;22.50;55.72;100311.50;5097338;28;20416;-90
2023/06/13 08:27:55;;;;;;;8.20;3.30;;;;;;;22.77;54.85;100321.44;5098593;28;20103;-89
2023/06/13 08:30:21;;;;;;;12.68;3.50;;;;;;;22.81;54.34;100273.38;5100954;28;20048;-90
2023/06/13 08:32:47;;;;;;;8.32;3.58;;;;;;;23.17;54.03;100305.78;5116479;28;20063;-94
2023/06/13 08:35:13;;;;;;;13.57;3.22;;;;;;;23.14;53.75;100298.84;5116807;28;20111;-89
2023/06/13 08:37:39;;;;;;;23.30;3.92;;;;;;;23.30;53.99;100314.00;5100141;28;20029;-90
2023/06/13 08:40:09;;;;;;;14.68;3.22;;;;;;;23.50;53.16;100303.81;5094827;28;20028;-91
2023/06/13 08:42:36;;;;;;;13.70;3.20;;;;;;;23.52;53.64;100298.94;5094608;28;20097;-88
2023/06/13 08:45:02;;;;;;;7.40;3.53;;;;;;;23.64;53.08;100275.25;5094818;28;20031;-89
2023/06/13 08:47:28;;;;;;;9.77;2.65;;;;;;;23.50;53.41;100268.13;5095231;28;20085;-89
2023/06/13 08:49:53;;;;;;;11.60;3.40;;;;;;;23.35;54.04;100275.75;5096683;28;20475;-89
2023/06/13 08:52:20;;;;;;;11.23;2.65;;;;;;;23.64;54.17;100310.94;5094533;28;20071;-88
2023/06/13 08:54:53;;;;;;;20.48;3.40;;;;;;;23.50;54.45;100316.72;5093346;28;20112;-89
2023/06/13 08:57:21;;;;;;;3.80;2.80;;;;;;;23.37;54.46;100290.09;5094185;28;20491;-90
2023/06/13 08:59:51;;;;;;;11.30;2.30;;;;;;;23.30;54.48;100283.81;5098816;28;20051;-90
2023/06/13 09:02:20;;;;;;;7.25;2.58;;;;;;;23.49;54.13;100282.91;5097143;28;20040;-92
2023/06/13 09:04:48;;;;;;;21.08;2.97;;;;;;;23.74;53.74;100310.50;5076099;28;20557;-90
2023/06/13 09:07:16;;;;;;;7.78;3.33;;;;;;;23.46;54.21;100299.81;5076136;28;20132;-90
2023/06/13 09:09:42;;;;;;;6.78;2.88;;;;;;;23.34;54.78;100271.31;5094537;28;20446;-91
2023/06/13 09:12:11;;;;;;;21.00;4.38;;;;;;;23.72;53.90;100275.03;5093021;28;20503;-90
2023/06/13 09:14:37;;;;;;;22.40;3.67;;;;;;;23.87;52.96;100279.38;5076215;28;20028;-89
2023/06/13 09:17:03;;;;;;;21.05;4.00;;;;;;;23.92;53.53;100282.28;5093779;28;20068;-89
2023/06/13 09:19:29;;;;;;;8.23;3.00;;;;;;;23.80;53.58;100274.75;5096139;28;20039;-88
2023/06/13 09:21:55;;;;;;;11.52;3.15;;;;;;;23.97;53.83;100299.81;5099270;28;20070;-90
2023/06/13 09:24:23;;;;;;;19.63;3.13;;;;;;;23.76;54.17;100269.91;5116016;28;20055;-88
2023/06/13 09:26:50;;;;;;;8.75;3.47;;;;;;;23.55;53.89;100254.59;5118368;28;20047;-91
2023/06/13 09:29:16;;;;;;;11.13;3.33;;;;;;;23.52;54.66;100271.50;5117037;28;20036;-90
2023/06/13 09:31:41;;;;;;;6.15;3.65;;;;;;;23.64;54.66;100277.16;5117689;28;20042;-90
2023/06/13 09:34:07;;;;;;;26.83;3.95;;;;;;;23.47;55.10;100254.84;5117698;28;20110;-90
2023/06/13 09:36:37;;;;;;;7.20;2.92;;;;;;;23.59;55.25;100287.94;5112479;28;20373;-89
2023/06/13 09:39:06;;;;;;;11.55;3.10;;;;;;;23.65;54.80;100262.38;5095064;28;20441;-89
2023/06/13 09:41:32;;;;;;;6.40;3.17;;;;;;;23.72;54.51;100293.41;5095046;28;20070;-89
2023/06/13 09:44:06;;;;;;;7.65;2.25;;;;;;;23.51;55.40;100258.84;5095272;28;20124;-88
2023/06/13 09:46:36;;;;;;;6.13;2.97;;;;;;;23.58;54.86;100259.66;5102866;28;21196;-87
2023/06/13 09:49:02;;;;;;;9.48;2.97;;;;;;;23.65;54.17;100285.19;5105111;28;20028;-88
2023/06/13 09:51:32;;;;;;;24.58;3.75;;;;;;;23.67;55.11;100273.97;5093800;28;20032;-89
2023/06/13 09:53:58;;;;;;;10.05;3.50;;;;;;;23.49;55.12;100274.69;5093564;28;20062;-88
2023/06/13 09:56:23;;;;;;;8.88;3.30;;;;;;;23.55;55.29;100259.22;5093367;28;20038;-89
2023/06/13 09:58:50;;;;;;;12.15;3.65;;;;;;;23.58;54.70;100234.09;5092981;28;20480;-90
2023/06/13 10:01:17;;;;;;;26.02;4.65;;;;;;;23.62;54.82;100249.91;5093012;28;20039;-90
2023/06/13 10:03:43;;;;;;;13.68;4.00;;;;;;;23.65;54.12;100254.13;5093887;28;20035;-89
2023/06/13 10:06:09;;;;;;;11.75;2.90;;;;;;;23.47;54.80;100230.16;5096544;28;20032;-89
2023/06/13 10:08:35;;;;;;;14.55;3.08;;;;;;;23.50;55.07;100240.69;5095299;28;20392;-90
2023/06/13 10:11:08;;;;;;;5.07;2.97;;;;;;;23.58;55.07;100243.19;5107412;28;20024;-90
2023/06/13 10:13:50;;;;;;;31.60;4.90;;;;;;;23.53;55.15;100258.63;5098971;28;20032;-89
2023/06/13 10:16:19;;;;;;;;;;;;;;;23.60;55.34;100262.19;5094997;28;20484;-89
2023/06/13 10:18:46;;;;;;;31.33;8.85;;;;;;;23.50;54.70;100237.09;5094696;28;19912;-89
2023/06/13 10:21:13;;;;;;;7.03;4.00;;;;;;;23.38;54.89;100234.16;5095455;28;20031;-89
2023/06/13 10:23:48;;;;;;;12.38;2.80;;;;;;;23.59;54.59;100236.63;5095001;28;20024;-88
2023/06/13 10:26:27;;;;;;;12.68;3.35;;;;;;;23.71;54.62;100242.28;5113893;28;20054;-94
2023/06/13 10:28:52;;;;;;;27.95;3.72;;;;;;;23.93;54.26;100267.50;5113880;28;20097;-91
2023/06/13 10:31:37;;;;;;;28.90;4.57;;;;;;;24.16;53.91;100248.56;5094867;28;20066;-88
2023/06/13 10:34:34;;;;;;;15.80;4.28;;;;;;;24.23;53.33;100241.13;5094687;28;20028;-88
2023/06/13 10:37:08;;;;;;;6.75;3.20;;;;;;;24.34;53.21;100251.41;5091887;28;20111;-89
2023/06/13 10:40:05;;;;;;;27.83;3.85;;;;;;;24.40;52.84;100245.03;5092873;28;20032;-89
2023/06/13 10:42:36;;;;;;;35.38;6.78;;;;;;;24.41;52.39;100210.94;5031719;28;20559;-88
2023/06/13 10:45:08;;;;;;;14.15;3.47;;;;;;;24.75;52.56;100231.59;5034440;28;20080;-87
2023/06/13 10:47:37;;;;;;;16.08;5.07;;;;;;;24.92;52.02;100240.13;5040126;28;20072;-89
2023/06/13 10:50:03;;;;;;;4.95;2.55;;;;;;;24.71;51.76;100225.69;5036232;28;20037;-88
2023/06/13 10:52:30;;;;;;;21.38;3.90;;;;;;;25.03;51.49;100236.63;5013882;28;20030;-89
2023/06/13 10:54:58;;;;;;;8.63;3.60;;;;;;;25.27;51.19;100232.94;5030506;28;20033;-87
2023/06/13 10:57:48;;;;;;;44.88;6.65;;;;;;;25.32;50.22;100220.16;5013769;28;20076;-89
2023/06/13 11:00:28;;;;;;;20.85;3.63;;;;;;;25.62;50.19;100253.31;5029995;28;20485;-89
2023/06/13 11:03:00;;;;;;;7.40;3.70;;;;;;;25.91;46.78;100235.94;5030035;28;20515;-87
2023/06/13 11:05:26;;;;;;;35.45;5.40;;;;;;;26.11;46.09;100223.78;5013297;28;20072;-89
2023/06/13 11:07:55;;;;;;;32.85;4.32;;;;;;;26.23;45.28;100199.88;5029995;28;20069;-88
2023/06/13 11:10:23;;;;;;;12.25;3.60;;;;;;;26.63;43.90;100217.44;5030082;28;20045;-88
2023/06/13 11:12:49;;;;;;;11.70;3.42;;;;;;;27.03;43.31;100218.38;5030615;28;20049;-87
2023/06/13 11:15:23;;;;;;;18.90;7.90;;;;;;;27.04;43.11;100206.28;5030847;28;20040;-88
2023/06/13 11:18:07;;;;;;;8.00;3.22;;;;;;;27.27;43.43;100230.25;5015503;28;20123;-88
2023/06/13 11:20:33;;;;;;;15.07;4.20;;;;;;;27.01;46.04;100231.59;5094166;28;20113;-88
2023/06/13 11:22:59;;;;;;;15.13;4.65;;;;;;;26.31;48.27;100236.22;5113986;28;20020;-93
2023/06/13 11:25:24;;;;;;;7.57;3.00;;;;;;;25.75;50.68;100235.75;5110375;28;20038;-90